sensor_id;sensor_type;location;lat;lon;timestamp;P1;durP1;ratioP1;P2;durP2;ratioP2
75774;SDS011;64505;51.458;7.556;2023-03-15T00:01:25;8.40;;;1.30;;
75774;SDS011;64505;51.458;7.556;2023-03-15T00:03:27;7.60;;;1.35;;
75774;SDS011;64505;51.458;7.556;2023-03-15T00:05:29;6.60;;;1.35;;
75774;SDS011;64505;51.458;7.556;2023-03-15T00:07:32;4.47;;;1.05;;
75774;SDS011;64505;51.458;7.556;2023-03-15T00:09:33;7.28;;;1.33;;
75774;SDS011;64505;51.458;7.556;2023-03-15T00:11:34;7.57;;;1.40;;
75774;SDS011;64505;51.458;7.556;2023-03-15T00:13:36;16.45;;;1.58;;
75774;SDS011;64505;51.458;7.556;2023-03-15T00:15:45;6.65;;;1.27;;
75774;SDS011;64505;51.458;7.556;2023-03-15T00:17:47;7.55;;;1.70;;
75774;SDS011;64505;51.458;7.556;2023-03-15T00:19:49;3.47;;;1.40;;
75774;SDS011;64505;51.458;7.556;2023-03-15T00:21:50;4.25;;;1.02;;
75774;SDS011;64505;51.458;7.556;2023-03-15T00:23:52;8.52;;;1.00;;
75774;SDS011;64505;51.458;7.556;2023-03-15T00:25:53;9.25;;;1.40;;
75774;SDS011;64505;51.458;7.556;2023-03-15T00:27:55;11.48;;;1.73;;
75774;SDS011;64505;51.458;7.556;2023-03-15T00:29:56;5.85;;;1.10;;
75774;SDS011;64505;51.458;7.556;2023-03-15T00:31:58;6.85;;;1.15;;
75774;SDS011;64505;51.458;7.556;2023-03-15T00:33:59;9.35;;;1.25;;
75774;SDS011;64505;51.458;7.556;2023-03-15T00:36:02;10.38;;;1.48;;
75774;SDS011;64505;51.458;7.556;2023-03-15T00:38:07;7.95;;;1.52;;
75774;SDS011;64505;51.458;7.556;2023-03-15T00:40:09;5.15;;;1.30;;
75774;SDS011;64505;51.458;7.556;2023-03-15T00:42:12;8.15;;;1.90;;
75774;SDS011;64505;51.458;7.556;2023-03-15T00:44:15;14.05;;;1.63;;
75774;SDS011;64505;51.458;7.556;2023-03-15T00:46:17;6.50;;;1.73;;
75774;SDS011;64505;51.458;7.556;2023-03-15T00:48:19;7.28;;;1.50;;
75774;SDS011;64505;51.458;7.556;2023-03-15T00:50:21;10.02;;;1.38;;
75774;SDS011;64505;51.458;7.556;2023-03-15T00:52:23;4.70;;;1.20;;
75774;SDS011;64505;51.458;7.556;2023-03-15T00:54:24;6.82;;;1.17;;
75774;SDS011;64505;51.458;7.556;2023-03-15T00:56:26;9.70;;;1.17;;
75774;SDS011;64505;51.458;7.556;2023-03-15T00:58:30;7.57;;;1.40;;
75774;SDS011;64505;51.458;7.556;2023-03-15T01:00:31;6.28;;;1.55;;
75774;SDS011;64505;51.458;7.556;2023-03-15T01:02:32;6.95;;;1.60;;
75774;SDS011;64505;51.458;7.556;2023-03-15T01:04:34;6.15;;;2.03;;
75774;SDS011;64505;51.458;7.556;2023-03-15T01:06:35;10.55;;;1.85;;
75774;SDS011;64505;51.458;7.556;2023-03-15T01:08:38;8.90;;;2.45;;
75774;SDS011;64505;51.458;7.556;2023-03-15T01:10:39;14.90;;;2.33;;
75774;SDS011;64505;51.458;7.556;2023-03-15T01:12:41;11.63;;;2.70;;
75774;SDS011;64505;51.458;7.556;2023-03-15T01:14:42;10.50;;;2.47;;
75774;SDS011;64505;51.458;7.556;2023-03-15T01:16:44;11.30;;;3.00;;
75774;SDS011;64505;51.458;7.556;2023-03-15T01:18:46;12.55;;;3.78;;
75774;SDS011;64505;51.458;7.556;2023-03-15T01:20:48;13.88;;;3.38;;
75774;SDS011;64505;51.458;7.556;2023-03-15T01:22:49;11.35;;;3.65;;
75774;SDS011;64505;51.458;7.556;2023-03-15T01:24:51;14.95;;;3.85;;
75774;SDS011;64505;51.458;7.556;2023-03-15T01:26:53;10.55;;;3.60;;
75774;SDS011;64505;51.458;7.556;2023-03-15T01:28:54;8.68;;;3.22;;
75774;SDS011;64505;51.458;7.556;2023-03-15T01:30:55;11.45;;;3.75;;
75774;SDS011;64505;51.458;7.556;2023-03-15T01:33:00;10.23;;;3.42;;
75774;SDS011;64505;51.458;7.556;2023-03-15T01:35:01;10.93;;;3.20;;
75774;SDS011;64505;51.458;7.556;2023-03-15T01:37:02;6.95;;;3.05;;
75774;SDS011;64505;51.458;7.556;2023-03-15T01:39:04;7.50;;;2.90;;
75774;SDS011;64505;51.458;7.556;2023-03-15T01:41:05;6.00;;;2.80;;
75774;SDS011;64505;51.458;7.556;2023-03-15T01:47:49;6.45;;;3.03;;
75774;SDS011;64505;51.458;7.556;2023-03-15T01:50:06;9.88;;;3.83;;
75774;SDS011;64505;51.458;7.556;2023-03-15T01:52:15;13.10;;;4.38;;
75774;SDS011;64505;51.458;7.556;2023-03-15T01:54:24;8.60;;;4.13;;
75774;SDS011;64505;51.458;7.556;2023-03-15T01:56:30;11.90;;;4.85;;
75774;SDS011;64505;51.458;7.556;2023-03-15T01:58:34;12.95;;;4.35;;
75774;SDS011;64505;51.458;7.556;2023-03-15T02:00:37;10.27;;;4.68;;
75774;SDS011;64505;51.458;7.556;2023-03-15T02:02:44;7.55;;;4.50;;
75774;SDS011;64505;51.458;7.556;2023-03-15T02:04:54;12.68;;;4.68;;
75774;SDS011;64505;51.458;7.556;2023-03-15T02:07:07;7.07;;;3.78;;
75774;SDS011;64505;51.458;7.556;2023-03-15T02:09:09;8.20;;;4.15;;
75774;SDS011;64505;51.458;7.556;2023-03-15T02:11:15;8.38;;;4.45;;
75774;SDS011;64505;51.458;7.556;2023-03-15T02:13:21;9.02;;;4.05;;
75774;SDS011;64505;51.458;7.556;2023-03-15T02:15:25;4.47;;;2.60;;
75774;SDS011;64505;51.458;7.556;2023-03-15T02:17:35;5.28;;;2.80;;
75774;SDS011;64505;51.458;7.556;2023-03-15T02:19:56;6.63;;;2.75;;
75774;SDS011;64505;51.458;7.556;2023-03-15T02:26:56;4.95;;;1.50;;
75774;SDS011;64505;51.458;7.556;2023-03-15T02:28:58;4.50;;;1.90;;
75774;SDS011;64505;51.458;7.556;2023-03-15T02:31:00;4.47;;;1.83;;
75774;SDS011;64505;51.458;7.556;2023-03-15T02:33:02;4.05;;;1.80;;
75774;SDS011;64505;51.458;7.556;2023-03-15T02:35:07;4.13;;;1.55;;
75774;SDS011;64505;51.458;7.556;2023-03-15T02:37:09;3.33;;;1.35;;
75774;SDS011;64505;51.458;7.556;2023-03-15T02:39:14;4.00;;;1.70;;
75774;SDS011;64505;51.458;7.556;2023-03-15T02:43:30;4.03;;;1.73;;
75774;SDS011;64505;51.458;7.556;2023-03-15T02:45:33;4.53;;;1.92;;
75774;SDS011;64505;51.458;7.556;2023-03-15T02:47:38;3.95;;;2.15;;
75774;SDS011;64505;51.458;7.556;2023-03-15T02:49:41;3.78;;;2.00;;
75774;SDS011;64505;51.458;7.556;2023-03-15T02:51:45;5.25;;;2.35;;
75774;SDS011;64505;51.458;7.556;2023-03-15T02:53:46;5.65;;;2.72;;
75774;SDS011;64505;51.458;7.556;2023-03-15T02:55:48;4.78;;;2.20;;
75774;SDS011;64505;51.458;7.556;2023-03-15T02:57:49;3.95;;;2.35;;
75774;SDS011;64505;51.458;7.556;2023-03-15T02:59:51;6.50;;;2.83;;
75774;SDS011;64505;51.458;7.556;2023-03-15T03:01:53;5.57;;;2.35;;
75774;SDS011;64505;51.458;7.556;2023-03-15T03:03:54;5.82;;;2.90;;
75774;SDS011;64505;51.458;7.556;2023-03-15T03:05:56;6.07;;;2.67;;
75774;SDS011;64505;51.458;7.556;2023-03-15T03:07:57;4.97;;;2.42;;
75774;SDS011;64505;51.458;7.556;2023-03-15T03:09:58;4.30;;;2.65;;
75774;SDS011;64505;51.458;7.556;2023-03-15T03:12:00;6.45;;;3.17;;
75774;SDS011;64505;51.458;7.556;2023-03-15T03:14:01;8.38;;;3.05;;
75774;SDS011;64505;51.458;7.556;2023-03-15T03:16:03;6.22;;;3.45;;
75774;SDS011;64505;51.458;7.556;2023-03-15T03:18:04;5.20;;;3.08;;
75774;SDS011;64505;51.458;7.556;2023-03-15T03:20:06;9.38;;;3.92;;
75774;SDS011;64505;51.458;7.556;2023-03-15T03:22:10;5.35;;;3.00;;
75774;SDS011;64505;51.458;7.556;2023-03-15T03:24:13;6.30;;;2.97;;
75774;SDS011;64505;51.458;7.556;2023-03-15T03:26:17;6.00;;;3.42;;
75774;SDS011;64505;51.458;7.556;2023-03-15T03:28:19;6.28;;;3.40;;
75774;SDS011;64505;51.458;7.556;2023-03-15T03:30:22;8.23;;;3.65;;
75774;SDS011;64505;51.458;7.556;2023-03-15T03:32:24;8.65;;;4.10;;
75774;SDS011;64505;51.458;7.556;2023-03-15T03:34:25;8.75;;;4.18;;
75774;SDS011;64505;51.458;7.556;2023-03-15T03:36:27;8.43;;;4.60;;
75774;SDS011;64505;51.458;7.556;2023-03-15T03:38:28;9.68;;;4.90;;
75774;SDS011;64505;51.458;7.556;2023-03-15T03:40:30;8.20;;;4.63;;
75774;SDS011;64505;51.458;7.556;2023-03-15T03:42:32;8.73;;;4.80;;
75774;SDS011;64505;51.458;7.556;2023-03-15T03:44:34;10.35;;;5.68;;
75774;SDS011;64505;51.458;7.556;2023-03-15T03:46:35;9.32;;;5.07;;
75774;SDS011;64505;51.458;7.556;2023-03-15T03:48:37;9.20;;;5.50;;
75774;SDS011;64505;51.458;7.556;2023-03-15T03:50:38;10.07;;;5.28;;
75774;SDS011;64505;51.458;7.556;2023-03-15T03:52:40;9.98;;;4.90;;
75774;SDS011;64505;51.458;7.556;2023-03-15T03:54:43;11.52;;;5.35;;
75774;SDS011;64505;51.458;7.556;2023-03-15T03:56:45;8.73;;;4.53;;
75774;SDS011;64505;51.458;7.556;2023-03-15T03:58:47;10.50;;;5.82;;
75774;SDS011;64505;51.458;7.556;2023-03-15T04:00:50;7.85;;;5.45;;
75774;SDS011;64505;51.458;7.556;2023-03-15T04:02:54;10.63;;;5.97;;
75774;SDS011;64505;51.458;7.556;2023-03-15T04:04:55;10.23;;;5.88;;
75774;SDS011;64505;51.458;7.556;2023-03-15T04:06:57;9.27;;;5.05;;
75774;SDS011;64505;51.458;7.556;2023-03-15T04:08:58;8.35;;;5.10;;
75774;SDS011;64505;51.458;7.556;2023-03-15T04:11:00;8.93;;;5.40;;
75774;SDS011;64505;51.458;7.556;2023-03-15T04:13:04;10.02;;;5.57;;
75774;SDS011;64505;51.458;7.556;2023-03-15T04:15:05;9.85;;;4.78;;
75774;SDS011;64505;51.458;7.556;2023-03-15T04:17:07;9.45;;;5.50;;
75774;SDS011;64505;51.458;7.556;2023-03-15T04:19:08;10.85;;;5.03;;
75774;SDS011;64505;51.458;7.556;2023-03-15T04:21:12;11.18;;;5.90;;
75774;SDS011;64505;51.458;7.556;2023-03-15T04:23:14;10.82;;;5.63;;
75774;SDS011;64505;51.458;7.556;2023-03-15T04:25:17;11.80;;;5.40;;
75774;SDS011;64505;51.458;7.556;2023-03-15T04:27:19;10.25;;;6.03;;
75774;SDS011;64505;51.458;7.556;2023-03-15T04:29:20;9.25;;;5.35;;
75774;SDS011;64505;51.458;7.556;2023-03-15T04:31:22;9.85;;;4.90;;
75774;SDS011;64505;51.458;7.556;2023-03-15T04:33:27;9.70;;;5.40;;
75774;SDS011;64505;51.458;7.556;2023-03-15T04:35:30;12.15;;;5.55;;
75774;SDS011;64505;51.458;7.556;2023-03-15T04:37:33;10.38;;;5.63;;
75774;SDS011;64505;51.458;7.556;2023-03-15T04:39:35;11.95;;;5.75;;
75774;SDS011;64505;51.458;7.556;2023-03-15T04:41:36;13.13;;;6.13;;
75774;SDS011;64505;51.458;7.556;2023-03-15T04:43:39;9.23;;;4.88;;
75774;SDS011;64505;51.458;7.556;2023-03-15T04:45:41;10.85;;;6.15;;
75774;SDS011;64505;51.458;7.556;2023-03-15T04:47:42;10.32;;;5.30;;
75774;SDS011;64505;51.458;7.556;2023-03-15T04:49:43;12.75;;;5.78;;
75774;SDS011;64505;51.458;7.556;2023-03-15T04:51:45;11.55;;;6.03;;
75774;SDS011;64505;51.458;7.556;2023-03-15T04:53:46;11.50;;;5.85;;
75774;SDS011;64505;51.458;7.556;2023-03-15T04:55:48;11.35;;;5.93;;
75774;SDS011;64505;51.458;7.556;2023-03-15T04:57:49;10.23;;;5.40;;
75774;SDS011;64505;51.458;7.556;2023-03-15T04:59:50;12.63;;;6.60;;
75774;SDS011;64505;51.458;7.556;2023-03-15T05:01:52;13.55;;;6.07;;
75774;SDS011;64505;51.458;7.556;2023-03-15T05:03:53;10.55;;;6.03;;
75774;SDS011;64505;51.458;7.556;2023-03-15T05:05:55;10.25;;;5.85;;
75774;SDS011;64505;51.458;7.556;2023-03-15T05:07:56;16.10;;;6.40;;
75774;SDS011;64505;51.458;7.556;2023-03-15T05:09:58;12.30;;;6.45;;
75774;SDS011;64505;51.458;7.556;2023-03-15T05:11:59;11.05;;;5.40;;
75774;SDS011;64505;51.458;7.556;2023-03-15T05:14:00;10.88;;;5.90;;
75774;SDS011;64505;51.458;7.556;2023-03-15T05:16:02;9.65;;;5.53;;
75774;SDS011;64505;51.458;7.556;2023-03-15T05:18:04;10.50;;;5.50;;
75774;SDS011;64505;51.458;7.556;2023-03-15T05:20:05;10.02;;;5.18;;
75774;SDS011;64505;51.458;7.556;2023-03-15T05:22:13;7.78;;;4.78;;
75774;SDS011;64505;51.458;7.556;2023-03-15T05:24:14;9.30;;;4.38;;
75774;SDS011;64505;51.458;7.556;2023-03-15T05:26:16;9.07;;;4.93;;
75774;SDS011;64505;51.458;7.556;2023-03-15T05:28:17;7.55;;;4.25;;
75774;SDS011;64505;51.458;7.556;2023-03-15T05:30:19;8.45;;;4.43;;
75774;SDS011;64505;51.458;7.556;2023-03-15T05:32:22;11.15;;;4.60;;
75774;SDS011;64505;51.458;7.556;2023-03-15T05:34:26;8.05;;;4.38;;
75774;SDS011;64505;51.458;7.556;2023-03-15T05:36:28;10.18;;;4.68;;
75774;SDS011;64505;51.458;7.556;2023-03-15T05:38:31;7.85;;;4.20;;
75774;SDS011;64505;51.458;7.556;2023-03-15T05:40:32;9.30;;;4.88;;
75774;SDS011;64505;51.458;7.556;2023-03-15T05:42:33;8.40;;;4.13;;
75774;SDS011;64505;51.458;7.556;2023-03-15T05:44:35;8.02;;;3.80;;
75774;SDS011;64505;51.458;7.556;2023-03-15T05:46:37;6.78;;;3.55;;
75774;SDS011;64505;51.458;7.556;2023-03-15T05:48:38;7.20;;;3.95;;
75774;SDS011;64505;51.458;7.556;2023-03-15T05:50:39;8.93;;;3.33;;
75774;SDS011;64505;51.458;7.556;2023-03-15T05:52:41;9.25;;;3.55;;
75774;SDS011;64505;51.458;7.556;2023-03-15T05:54:42;12.55;;;3.95;;
75774;SDS011;64505;51.458;7.556;2023-03-15T05:56:44;7.45;;;3.97;;
75774;SDS011;64505;51.458;7.556;2023-03-15T05:58:45;8.55;;;3.30;;
75774;SDS011;64505;51.458;7.556;2023-03-15T06:00:47;7.93;;;3.83;;
75774;SDS011;64505;51.458;7.556;2023-03-15T06:02:49;10.10;;;3.92;;
75774;SDS011;64505;51.458;7.556;2023-03-15T06:04:50;10.15;;;3.75;;
75774;SDS011;64505;51.458;7.556;2023-03-15T06:06:52;10.00;;;4.20;;
75774;SDS011;64505;51.458;7.556;2023-03-15T06:08:53;8.27;;;4.22;;
75774;SDS011;64505;51.458;7.556;2023-03-15T06:10:55;10.13;;;4.40;;
75774;SDS011;64505;51.458;7.556;2023-03-15T06:12:56;8.07;;;4.00;;
75774;SDS011;64505;51.458;7.556;2023-03-15T06:14:58;8.73;;;4.70;;
75774;SDS011;64505;51.458;7.556;2023-03-15T06:16:59;8.63;;;3.63;;
75774;SDS011;64505;51.458;7.556;2023-03-15T06:19:01;9.20;;;4.28;;
75774;SDS011;64505;51.458;7.556;2023-03-15T06:21:03;9.20;;;3.95;;
75774;SDS011;64505;51.458;7.556;2023-03-15T06:23:05;6.80;;;4.05;;
75774;SDS011;64505;51.458;7.556;2023-03-15T06:25:07;8.85;;;3.55;;
75774;SDS011;64505;51.458;7.556;2023-03-15T06:27:09;9.57;;;4.72;;
75774;SDS011;64505;51.458;7.556;2023-03-15T06:29:11;8.27;;;4.20;;
75774;SDS011;64505;51.458;7.556;2023-03-15T06:31:12;7.15;;;3.95;;
75774;SDS011;64505;51.458;7.556;2023-03-15T06:33:15;9.57;;;4.32;;
75774;SDS011;64505;51.458;7.556;2023-03-15T06:35:16;7.95;;;4.88;;
75774;SDS011;64505;51.458;7.556;2023-03-15T06:37:18;7.78;;;5.00;;
75774;SDS011;64505;51.458;7.556;2023-03-15T06:39:35;9.35;;;5.13;;
75774;SDS011;64505;51.458;7.556;2023-03-15T06:41:37;8.35;;;5.32;;
75774;SDS011;64505;51.458;7.556;2023-03-15T06:43:39;9.00;;;5.47;;
75774;SDS011;64505;51.458;7.556;2023-03-15T06:45:40;9.90;;;5.68;;
75774;SDS011;64505;51.458;7.556;2023-03-15T06:47:42;10.18;;;5.65;;
75774;SDS011;64505;51.458;7.556;2023-03-15T06:49:43;10.57;;;5.93;;
75774;SDS011;64505;51.458;7.556;2023-03-15T06:51:45;11.52;;;5.95;;
75774;SDS011;64505;51.458;7.556;2023-03-15T06:53:46;13.73;;;6.45;;
75774;SDS011;64505;51.458;7.556;2023-03-15T06:55:48;12.32;;;6.30;;
75774;SDS011;64505;51.458;7.556;2023-03-15T06:57:50;9.13;;;5.63;;
75774;SDS011;64505;51.458;7.556;2023-03-15T06:59:52;13.45;;;6.72;;
75774;SDS011;64505;51.458;7.556;2023-03-15T07:01:54;12.70;;;6.63;;
75774;SDS011;64505;51.458;7.556;2023-03-15T07:03:55;13.25;;;6.60;;
75774;SDS011;64505;51.458;7.556;2023-03-15T07:05:57;13.40;;;6.95;;
75774;SDS011;64505;51.458;7.556;2023-03-15T07:07:59;12.65;;;7.63;;
75774;SDS011;64505;51.458;7.556;2023-03-15T07:10:00;14.52;;;7.90;;
75774;SDS011;64505;51.458;7.556;2023-03-15T07:12:02;15.48;;;7.65;;
75774;SDS011;64505;51.458;7.556;2023-03-15T07:14:04;15.95;;;8.25;;
75774;SDS011;64505;51.458;7.556;2023-03-15T07:16:06;15.90;;;7.78;;
75774;SDS011;64505;51.458;7.556;2023-03-15T07:18:07;15.25;;;8.20;;
75774;SDS011;64505;51.458;7.556;2023-03-15T07:20:09;17.45;;;7.82;;
75774;SDS011;64505;51.458;7.556;2023-03-15T07:22:11;16.02;;;8.00;;
75774;SDS011;64505;51.458;7.556;2023-03-15T07:24:12;14.40;;;6.18;;
75774;SDS011;64505;51.458;7.556;2023-03-15T07:26:13;12.93;;;6.63;;
75774;SDS011;64505;51.458;7.556;2023-03-15T07:28:15;16.33;;;7.03;;
75774;SDS011;64505;51.458;7.556;2023-03-15T07:30:17;14.70;;;8.13;;
75774;SDS011;64505;51.458;7.556;2023-03-15T07:32:19;15.27;;;7.35;;
75774;SDS011;64505;51.458;7.556;2023-03-15T07:34:21;18.00;;;7.30;;
75774;SDS011;64505;51.458;7.556;2023-03-15T07:36:22;14.52;;;7.68;;
75774;SDS011;64505;51.458;7.556;2023-03-15T07:38:25;13.00;;;6.68;;
75774;SDS011;64505;51.458;7.556;2023-03-15T07:40:28;14.50;;;7.28;;
75774;SDS011;64505;51.458;7.556;2023-03-15T07:42:31;15.10;;;6.85;;
75774;SDS011;64505;51.458;7.556;2023-03-15T07:44:32;18.05;;;7.43;;
75774;SDS011;64505;51.458;7.556;2023-03-15T07:46:33;17.95;;;7.45;;
75774;SDS011;64505;51.458;7.556;2023-03-15T07:48:35;16.00;;;7.57;;
75774;SDS011;64505;51.458;7.556;2023-03-15T07:50:37;16.38;;;7.72;;
75774;SDS011;64505;51.458;7.556;2023-03-15T07:52:39;17.83;;;8.30;;
75774;SDS011;64505;51.458;7.556;2023-03-15T07:54:41;14.50;;;8.65;;
75774;SDS011;64505;51.458;7.556;2023-03-15T07:56:42;18.50;;;8.40;;
75774;SDS011;64505;51.458;7.556;2023-03-15T07:58:43;19.08;;;8.68;;
75774;SDS011;64505;51.458;7.556;2023-03-15T08:00:45;16.80;;;8.57;;
75774;SDS011;64505;51.458;7.556;2023-03-15T08:02:46;17.33;;;7.75;;
75774;SDS011;64505;51.458;7.556;2023-03-15T08:04:48;14.43;;;6.85;;
75774;SDS011;64505;51.458;7.556;2023-03-15T08:06:51;9.80;;;5.78;;
75774;SDS011;64505;51.458;7.556;2023-03-15T08:08:52;10.45;;;6.25;;
75774;SDS011;64505;51.458;7.556;2023-03-15T08:10:53;11.15;;;5.60;;
75774;SDS011;64505;51.458;7.556;2023-03-15T08:12:56;10.93;;;5.82;;
75774;SDS011;64505;51.458;7.556;2023-03-15T08:14:57;11.13;;;6.45;;
75774;SDS011;64505;51.458;7.556;2023-03-15T08:16:59;12.45;;;5.93;;
75774;SDS011;64505;51.458;7.556;2023-03-15T08:19:00;13.48;;;5.78;;
75774;SDS011;64505;51.458;7.556;2023-03-15T08:21:02;11.63;;;5.47;;
75774;SDS011;64505;51.458;7.556;2023-03-15T08:23:04;11.27;;;5.97;;
75774;SDS011;64505;51.458;7.556;2023-03-15T08:25:06;12.23;;;4.75;;
75774;SDS011;64505;51.458;7.556;2023-03-15T08:27:08;8.45;;;4.68;;
75774;SDS011;64505;51.458;7.556;2023-03-15T08:29:10;12.13;;;4.90;;
75774;SDS011;64505;51.458;7.556;2023-03-15T08:31:11;10.85;;;5.35;;
75774;SDS011;64505;51.458;7.556;2023-03-15T08:33:13;9.70;;;4.85;;
75774;SDS011;64505;51.458;7.556;2023-03-15T08:35:16;7.05;;;3.78;;
75774;SDS011;64505;51.458;7.556;2023-03-15T08:37:18;8.30;;;4.32;;
75774;SDS011;64505;51.458;7.556;2023-03-15T08:39:20;8.20;;;3.47;;
75774;SDS011;64505;51.458;7.556;2023-03-15T08:41:24;11.43;;;4.15;;
75774;SDS011;64505;51.458;7.556;2023-03-15T08:43:25;8.38;;;3.70;;
75774;SDS011;64505;51.458;7.556;2023-03-15T08:45:27;8.63;;;2.67;;
75774;SDS011;64505;51.458;7.556;2023-03-15T08:47:28;9.57;;;2.45;;
75774;SDS011;64505;51.458;7.556;2023-03-15T08:49:30;8.80;;;2.85;;
75774;SDS011;64505;51.458;7.556;2023-03-15T08:51:31;6.93;;;2.70;;
75774;SDS011;64505;51.458;7.556;2023-03-15T08:53:33;4.82;;;2.53;;
75774;SDS011;64505;51.458;7.556;2023-03-15T08:55:35;7.90;;;2.50;;
75774;SDS011;64505;51.458;7.556;2023-03-15T08:57:37;7.82;;;2.42;;
75774;SDS011;64505;51.458;7.556;2023-03-15T08:59:39;9.98;;;2.60;;
75774;SDS011;64505;51.458;7.556;2023-03-15T09:01:41;6.95;;;2.67;;
75774;SDS011;64505;51.458;7.556;2023-03-15T09:03:42;5.95;;;2.55;;
75774;SDS011;64505;51.458;7.556;2023-03-15T09:05:44;6.28;;;3.20;;
75774;SDS011;64505;51.458;7.556;2023-03-15T09:07:45;6.20;;;3.03;;
75774;SDS011;64505;51.458;7.556;2023-03-15T09:09:48;13.23;;;3.13;;
75774;SDS011;64505;51.458;7.556;2023-03-15T09:11:49;6.57;;;3.08;;
75774;SDS011;64505;51.458;7.556;2023-03-15T09:13:51;5.15;;;2.60;;
75774;SDS011;64505;51.458;7.556;2023-03-15T09:15:53;6.60;;;2.92;;
75774;SDS011;64505;51.458;7.556;2023-03-15T09:17:55;9.25;;;2.75;;
75774;SDS011;64505;51.458;7.556;2023-03-15T09:19:56;5.10;;;2.70;;
75774;SDS011;64505;51.458;7.556;2023-03-15T09:21:58;8.30;;;3.00;;
75774;SDS011;64505;51.458;7.556;2023-03-15T09:24:19;7.40;;;2.92;;
75774;SDS011;64505;51.458;7.556;2023-03-15T09:26:20;6.85;;;3.13;;
75774;SDS011;64505;51.458;7.556;2023-03-15T09:28:22;7.75;;;2.63;;
75774;SDS011;64505;51.458;7.556;2023-03-15T09:30:25;6.22;;;2.85;;
75774;SDS011;64505;51.458;7.556;2023-03-15T09:32:28;10.48;;;3.20;;
75774;SDS011;64505;51.458;7.556;2023-03-15T09:34:30;6.45;;;2.65;;
75774;SDS011;64505;51.458;7.556;2023-03-15T09:36:41;9.55;;;2.65;;
75774;SDS011;64505;51.458;7.556;2023-03-15T09:38:43;6.60;;;2.67;;
75774;SDS011;64505;51.458;7.556;2023-03-15T09:40:45;8.30;;;2.53;;
75774;SDS011;64505;51.458;7.556;2023-03-15T09:44:59;9.45;;;2.53;;
75774;SDS011;64505;51.458;7.556;2023-03-15T09:47:19;8.20;;;2.92;;
75774;SDS011;64505;51.458;7.556;2023-03-15T09:56:47;6.85;;;2.83;;
75774;SDS011;64505;51.458;7.556;2023-03-15T09:58:59;11.05;;;2.90;;
75774;SDS011;64505;51.458;7.556;2023-03-15T10:01:05;11.43;;;3.33;;
75774;SDS011;64505;51.458;7.556;2023-03-15T10:03:14;12.00;;;3.58;;
75774;SDS011;64505;51.458;7.556;2023-03-15T10:05:21;8.55;;;3.83;;
75774;SDS011;64505;51.458;7.556;2023-03-15T10:07:26;7.95;;;3.17;;
75774;SDS011;64505;51.458;7.556;2023-03-15T10:09:28;11.23;;;3.30;;
75774;SDS011;64505;51.458;7.556;2023-03-15T10:16:08;10.25;;;2.78;;
75774;SDS011;64505;51.458;7.556;2023-03-15T10:18:36;7.07;;;3.20;;
75774;SDS011;64505;51.458;7.556;2023-03-15T10:21:03;8.82;;;2.80;;
75774;SDS011;64505;51.458;7.556;2023-03-15T10:23:18;7.90;;;2.95;;
75774;SDS011;64505;51.458;7.556;2023-03-15T10:25:28;7.78;;;3.08;;
75774;SDS011;64505;51.458;7.556;2023-03-15T10:27:33;10.55;;;2.47;;
75774;SDS011;64505;51.458;7.556;2023-03-15T10:29:39;9.52;;;2.60;;
75774;SDS011;64505;51.458;7.556;2023-03-15T10:31:41;8.07;;;2.40;;
75774;SDS011;64505;51.458;7.556;2023-03-15T10:33:46;11.55;;;2.72;;
75774;SDS011;64505;51.458;7.556;2023-03-15T10:35:49;7.65;;;2.58;;
75774;SDS011;64505;51.458;7.556;2023-03-15T10:37:56;9.30;;;2.25;;
75774;SDS011;64505;51.458;7.556;2023-03-15T10:39:58;10.30;;;2.45;;
75774;SDS011;64505;51.458;7.556;2023-03-15T10:42:00;7.75;;;2.03;;
75774;SDS011;64505;51.458;7.556;2023-03-15T10:44:05;5.55;;;1.90;;
75774;SDS011;64505;51.458;7.556;2023-03-15T10:46:12;11.50;;;2.08;;
75774;SDS011;64505;51.458;7.556;2023-03-15T10:48:22;8.38;;;2.08;;
75774;SDS011;64505;51.458;7.556;2023-03-15T10:50:25;5.75;;;1.90;;
75774;SDS011;64505;51.458;7.556;2023-03-15T10:54:39;5.97;;;2.20;;
75774;SDS011;64505;51.458;7.556;2023-03-15T10:56:56;5.82;;;2.00;;
75774;SDS011;64505;51.458;7.556;2023-03-15T10:59:02;17.30;;;2.72;;
75774;SDS011;64505;51.458;7.556;2023-03-15T11:01:21;10.43;;;2.25;;
75774;SDS011;64505;51.458;7.556;2023-03-15T11:03:25;11.57;;;2.25;;
75774;SDS011;64505;51.458;7.556;2023-03-15T11:05:30;12.73;;;2.60;;
75774;SDS011;64505;51.458;7.556;2023-03-15T11:07:39;9.75;;;2.42;;
75774;SDS011;64505;51.458;7.556;2023-03-15T11:09:58;9.25;;;2.60;;
75774;SDS011;64505;51.458;7.556;2023-03-15T11:12:02;12.00;;;2.50;;
75774;SDS011;64505;51.458;7.556;2023-03-15T11:14:06;12.63;;;2.25;;
75774;SDS011;64505;51.458;7.556;2023-03-15T11:18:16;8.73;;;3.03;;
75774;SDS011;64505;51.458;7.556;2023-03-15T11:20:30;6.28;;;2.33;;
75774;SDS011;64505;51.458;7.556;2023-03-15T11:22:38;5.63;;;2.13;;
75774;SDS011;64505;51.458;7.556;2023-03-15T11:24:40;6.72;;;1.85;;
75774;SDS011;64505;51.458;7.556;2023-03-15T11:26:42;6.43;;;2.20;;
75774;SDS011;64505;51.458;7.556;2023-03-15T11:28:52;5.35;;;2.17;;
75774;SDS011;64505;51.458;7.556;2023-03-15T11:30:59;9.00;;;2.03;;
75774;SDS011;64505;51.458;7.556;2023-03-15T11:33:05;6.10;;;2.20;;
75774;SDS011;64505;51.458;7.556;2023-03-15T11:35:16;5.97;;;1.60;;
75774;SDS011;64505;51.458;7.556;2023-03-15T11:37:24;4.85;;;1.77;;
75774;SDS011;64505;51.458;7.556;2023-03-15T11:39:37;5.53;;;1.75;;
75774;SDS011;64505;51.458;7.556;2023-03-15T11:42:17;5.70;;;1.83;;
75774;SDS011;64505;51.458;7.556;2023-03-15T11:44:36;5.60;;;2.15;;
75774;SDS011;64505;51.458;7.556;2023-03-15T11:46:49;8.77;;;2.17;;
75774;SDS011;64505;51.458;7.556;2023-03-15T11:49:02;6.03;;;1.52;;
75774;SDS011;64505;51.458;7.556;2023-03-15T11:51:19;2.95;;;1.48;;
75774;SDS011;64505;51.458;7.556;2023-03-15T11:53:21;5.75;;;1.15;;
75774;SDS011;64505;51.458;7.556;2023-03-15T11:55:26;4.93;;;1.48;;
75774;SDS011;64505;51.458;7.556;2023-03-15T11:59:31;4.10;;;1.50;;
75774;SDS011;64505;51.458;7.556;2023-03-15T12:01:34;6.03;;;1.73;;
75774;SDS011;64505;51.458;7.556;2023-03-15T12:03:40;5.57;;;1.58;;
75774;SDS011;64505;51.458;7.556;2023-03-15T12:05:49;7.20;;;1.60;;
75774;SDS011;64505;51.458;7.556;2023-03-15T12:10:29;7.03;;;1.45;;
75774;SDS011;64505;51.458;7.556;2023-03-15T12:12:34;7.28;;;1.80;;
75774;SDS011;64505;51.458;7.556;2023-03-15T12:14:36;7.78;;;1.85;;
75774;SDS011;64505;51.458;7.556;2023-03-15T12:16:40;6.57;;;1.98;;
75774;SDS011;64505;51.458;7.556;2023-03-15T12:18:45;6.50;;;1.80;;
75774;SDS011;64505;51.458;7.556;2023-03-15T12:25:14;8.27;;;1.65;;
75774;SDS011;64505;51.458;7.556;2023-03-15T12:27:19;7.35;;;1.80;;
75774;SDS011;64505;51.458;7.556;2023-03-15T12:29:22;7.72;;;2.47;;
75774;SDS011;64505;51.458;7.556;2023-03-15T12:31:26;8.68;;;2.08;;
75774;SDS011;64505;51.458;7.556;2023-03-15T12:33:50;7.40;;;1.85;;
75774;SDS011;64505;51.458;7.556;2023-03-15T12:36:07;4.93;;;1.45;;
75774;SDS011;64505;51.458;7.556;2023-03-15T12:38:19;5.35;;;1.52;;
75774;SDS011;64505;51.458;7.556;2023-03-15T12:48:36;4.50;;;1.20;;
75774;SDS011;64505;51.458;7.556;2023-03-15T12:51:11;4.90;;;1.70;;
75774;SDS011;64505;51.458;7.556;2023-03-15T12:53:53;8.05;;;1.52;;
75774;SDS011;64505;51.458;7.556;2023-03-15T12:55:56;5.50;;;1.40;;
75774;SDS011;64505;51.458;7.556;2023-03-15T12:58:09;7.25;;;1.60;;
75774;SDS011;64505;51.458;7.556;2023-03-15T13:00:13;4.45;;;1.60;;
75774;SDS011;64505;51.458;7.556;2023-03-15T13:02:34;3.95;;;1.20;;
75774;SDS011;64505;51.458;7.556;2023-03-15T13:04:44;3.08;;;1.38;;
75774;SDS011;64505;51.458;7.556;2023-03-15T13:12:19;3.88;;;1.00;;
75774;SDS011;64505;51.458;7.556;2023-03-15T13:19:39;3.95;;;1.30;;
75774;SDS011;64505;51.458;7.556;2023-03-15T13:24:09;11.05;;;1.30;;